Darstellungsparameter: Aktuell verwendete Einstellungen:
Skalierung der Graphiken ... ?
xyx+y,   Skalierungsfaktor:      Skalierung: Modus: x, Faktor: 1
Darstellungszeitraum ... ?
Vom - - bis: - -   Zeitraum: 21.04.2010 - 22.04.2010
Min/Max/Avg-Anzeige ... ?
Zeige MMA aktuell
Zeige MMA Monat
Zeige MMA alles
Zeige --A aktuell
Zeige --A Monat
Zeige --A alles
Keine MMA-Anzeige
MMA:
Average (ber die Originaldaten)
MMA-Basis: 21.04.2010 - 22.04.2010
Quicknavigation für Darstellung... ?
Tage:      1T, 2T, 3T, 5T -1T -2T -3T -5T +1T +2T +3T +5T
Wochen: 1W, 2W, 3W -1W -2W -3W +1W +2W +3W
Monate: 1M, 3M, 6M -1M -3M -6M +1M +3M +6M
Jahre:    1J, 3J, 5J, 10J -1J -3J -5J -10J +1J +3J +5J +10J
Nutze für die Darstellung ... ?
Originaldaten oder Mittelwerte auf ...
Stundenbasis Tagesbasis Wochenbasis
Monatsbasis Jahresbasis      Datenbasis: Original-Daten
Darstellen als:
Statistik (Auto) Statistik J:M      Darstellung:
Zur Graphik,    zurück zur Übersicht aller Sensoren.
 
Tabellarische Datenbersicht: ?
 
Sensor: Nr:Datum:Temp:Abs-Feuchte:Windchill:Wind:
Aussen-T/F 1 21-04-2010 00:07:03 8.2 C 3.35 g/m*3 8.2 C 0 km/h
2 21-04-2010 00:19:03 8 C 3.39 g/m*3 8 C 0 km/h
3 21-04-2010 00:31:03 7.8 C 3.51 g/m*3 7.8 C 0 km/h
4 21-04-2010 00:43:03 7.8 C 3.59 g/m*3 7.8 C 0 km/h
5 21-04-2010 00:55:03 7.5 C 3.6 g/m*3 7.5 C 0 km/h
6 21-04-2010 01:07:03 7.2 C 3.61 g/m*3 7.2 C 0 km/h
7 21-04-2010 01:19:03 7 C 3.56 g/m*3 7 C 0 km/h
8 21-04-2010 01:31:03 7 C 3.64 g/m*3 7 C 0 km/h
9 21-04-2010 01:43:03 6.7 C 3.65 g/m*3 6.7 C 0 km/h
10 21-04-2010 01:55:03 6.5 C 3.75 g/m*3 6.5 C 0 km/h
11 21-04-2010 02:07:03 6.3 C 3.7 g/m*3 6.3 C 0 km/h
12 21-04-2010 02:19:03 6.1 C 3.73 g/m*3 6.1 C 0 km/h
13 21-04-2010 02:31:03 5.9 C 3.82 g/m*3 5.9 C 0 km/h
14 21-04-2010 02:43:03 5.6 C 3.89 g/m*3 5.6 C 0 km/h
15 21-04-2010 02:55:03 5.2 C 3.86 g/m*3 5.2 C 0 km/h
16 21-04-2010 03:07:03 4.9 C 4.05 g/m*3 4.9 C 0 km/h
17 21-04-2010 03:19:03 4.7 C 4 g/m*3 4.7 C 0 km/h
18 21-04-2010 03:31:03 4.7 C 4 g/m*3 4.7 C 0 km/h
19 21-04-2010 03:43:03 4.6 C 3.97 g/m*3 4.6 C 0 km/h
20 21-04-2010 03:55:03 4.4 C 3.98 g/m*3 4.4 C 0 km/h
21 21-04-2010 04:07:04 4.3 C 4.02 g/m*3 4.3 C 0 km/h
22 21-04-2010 04:19:04 4 C 3.94 g/m*3 4 C 0 km/h
23 21-04-2010 04:31:04 3.9 C 4.04 g/m*3 3.9 C 0 km/h
24 21-04-2010 04:43:04 3.7 C 4.05 g/m*3 3.7 C 0 km/h
25 21-04-2010 04:55:04 3.5 C 4.06 g/m*3 3.5 C 0 km/h
Sensor: Nr:Datum:Temp:Abs-Feuchte:Windchill:Wind:
Aussen-T/F 26 21-04-2010 05:07:04 3.2 C 4.04 g/m*3 3.2 C 0 km/h
27 21-04-2010 05:19:04 3 C 4.04 g/m*3 3 C 0 km/h
28 21-04-2010 05:31:04 2.8 C 4.11 g/m*3 2.8 C 0 km/h
29 21-04-2010 05:43:04 2.6 C 4.05 g/m*3 2.6 C 0 km/h
30 21-04-2010 05:55:04 2.6 C 4.05 g/m*3 2.6 C 0 km/h
31 21-04-2010 06:07:04 2.5 C 4.08 g/m*3 2.5 C 0 km/h
32 21-04-2010 06:19:04 2.4 C 4.05 g/m*3 2.4 C 0 km/h
33 21-04-2010 06:31:04 2.4 C 4.05 g/m*3 2.4 C 0 km/h
34 21-04-2010 06:43:04 2.3 C 4.08 g/m*3 2.3 C 0 km/h
35 21-04-2010 06:55:04 2.4 C 4.11 g/m*3 2.4 C 0 km/h
36 21-04-2010 07:07:03 2.5 C 4.08 g/m*3 2.5 C 0 km/h
37 21-04-2010 07:19:02 2.7 C 4.08 g/m*3 2.7 C 0 km/h
38 21-04-2010 07:31:03 2.8 C 4.11 g/m*3 2.8 C 0 km/h
39 21-04-2010 07:43:03 3.1 C 4.07 g/m*3 3.1 C 0 km/h
40 21-04-2010 07:55:02 3.6 C 4.15 g/m*3 3.6 C 0 km/h
41 21-04-2010 08:07:02 4 C 4.01 g/m*3 4 C 0 km/h
42 21-04-2010 08:19:02 4.1 C 3.97 g/m*3 4.1 C 0 km/h
43 21-04-2010 08:31:02 4.2 C 4.06 g/m*3 4.2 C 0 km/h
44 21-04-2010 08:43:02 4.4 C 4.11 g/m*3 4.4 C 0 km/h
45 21-04-2010 08:55:02 4.6 C 4.17 g/m*3 4.6 C 0 km/h
46 21-04-2010 09:07:03 4.7 C 4.2 g/m*3 4.7 C 0 km/h
47 21-04-2010 09:19:02 5 C 4.14 g/m*3 5 C 0 km/h
48 21-04-2010 09:31:03 5.3 C 4.09 g/m*3 5.3 C 0 km/h
49 21-04-2010 09:43:03 5.7 C 4.2 g/m*3 5.7 C 0 km/h
50 21-04-2010 09:55:02 6 C 4.06 g/m*3 6 C 0 km/h
Sensor: Nr:Datum:Temp:Abs-Feuchte:Windchill:Wind:
Aussen-T/F 51 21-04-2010 10:07:02 6.5 C 4.05 g/m*3 6.5 C 0 km/h
52 21-04-2010 10:19:01 6.8 C 4.13 g/m*3 6.8 C 0 km/h
53 21-04-2010 10:31:02 7.5 C 4.16 g/m*3 7.5 C 0 km/h
54 21-04-2010 10:43:03 7.6 C 4.03 g/m*3 7.6 C 0 km/h
55 21-04-2010 10:55:02 6.7 C 4.41 g/m*3 6.7 C 0 km/h
56 21-04-2010 11:07:02 6.5 C 4.8 g/m*3 6.5 C 0 km/h
57 21-04-2010 11:19:02 6.9 C 5.08 g/m*3 6.9 C 0 km/h
58 21-04-2010 11:31:02 7.1 C 4.91 g/m*3 7.1 C 0 km/h
59 21-04-2010 11:43:03 7.1 C 4.84 g/m*3 7.1 C 0 km/h
60 21-04-2010 11:55:01 6.7 C 4.79 g/m*3 6.7 C 0 km/h
61 21-04-2010 12:07:02 6.2 C 4.85 g/m*3 6.2 C 0 km/h
62 21-04-2010 12:19:01 5.7 C 5.19 g/m*3 5.7 C 0 km/h
63 21-04-2010 12:31:01 6.7 C 5.62 g/m*3 6.7 C 0 km/h
64 21-04-2010 12:43:01 7.8 C 5.55 g/m*3 7.8 C 0 km/h
65 21-04-2010 12:55:01 8.5 C 5.55 g/m*3 8.5 C 0 km/h
66 21-04-2010 13:07:02 9.5 C 5.28 g/m*3 9.5 C 0 km/h
67 21-04-2010 13:19:01 9.1 C 4.44 g/m*3 9.1 C 0 km/h
68 21-04-2010 13:31:02 9.6 C 4.49 g/m*3 9.6 C 0 km/h
69 21-04-2010 13:43:02 9.7 C 4.15 g/m*3 9.7 C 0 km/h
70 21-04-2010 13:55:02 9.8 C 4.27 g/m*3 9.8 C 0 km/h
71 21-04-2010 14:07:02 10.4 C 4.24 g/m*3 10.4 C 0 km/h
72 21-04-2010 14:19:01 10.6 C 3.9 g/m*3 10.6 C 0 km/h
73 21-04-2010 14:31:02 10.9 C 3.68 g/m*3 10.9 C 0 km/h
74 21-04-2010 14:43:02 10.5 C 3.59 g/m*3 10.5 C 0 km/h
75 21-04-2010 14:55:02 10.8 C 3.56 g/m*3 10.8 C 0 km/h
Sensor: Nr:Datum:Temp:Abs-Feuchte:Windchill:Wind:
Aussen-T/F 76 21-04-2010 15:07:02 11.7 C 3.66 g/m*3 11.7 C 0 km/h
77 21-04-2010 15:19:02 12 C 3.09 g/m*3 12 C 0 km/h
78 21-04-2010 15:31:02 11.7 C 3.14 g/m*3 11.7 C 0 km/h
79 21-04-2010 15:43:02 12 C 2.98 g/m*3 12 C 0 km/h
80 21-04-2010 15:55:02 12.1 C 3 g/m*3 12.1 C 0 km/h
81 21-04-2010 16:07:02 12.6 C 2.88 g/m*3 12.6 C 0 km/h
82 21-04-2010 16:19:02 13.4 C 2.91 g/m*3 13.4 C 0 km/h
83 21-04-2010 16:31:02 13.2 C 2.99 g/m*3 13.2 C 0 km/h
84 21-04-2010 16:43:02 12.1 C 3 g/m*3 12.1 C 0 km/h
85 21-04-2010 16:55:01 12.2 C 3.24 g/m*3 12.2 C 0 km/h
86 21-04-2010 17:07:02 12.4 C 2.95 g/m*3 12.4 C 0 km/h
87 21-04-2010 17:19:01 12.2 C 2.81 g/m*3 12.2 C 0 km/h
88 21-04-2010 17:31:02 12.1 C 2.79 g/m*3 12.1 C 0 km/h
89 21-04-2010 17:43:02 12.8 C 2.8 g/m*3 12.8 C 0 km/h
90 21-04-2010 17:55:02 12 C 2.56 g/m*3 12 C 0 km/h
91 21-04-2010 18:07:02 12.2 C 2.7 g/m*3 12.2 C 0 km/h
92 21-04-2010 18:19:01 12.5 C 2.75 g/m*3 12.5 C 0 km/h
93 21-04-2010 18:31:02 12.4 C 2.73 g/m*3 12.4 C 0 km/h
94 21-04-2010 18:43:02 12.3 C 2.17 g/m*3 12.3 C 0 km/h
95 21-04-2010 18:55:02 12.4 C 2.29 g/m*3 12.4 C 0 km/h
96 21-04-2010 19:07:02 11.6 C 2.18 g/m*3 11.6 C 0 km/h
97 21-04-2010 19:19:01 11.2 C 2.53 g/m*3 11.2 C 0 km/h
98 21-04-2010 19:31:02 11.3 C 2.24 g/m*3 11.3 C 0 km/h
99 21-04-2010 19:43:02 11.4 C 2.36 g/m*3 11.4 C 0 km/h
100 21-04-2010 19:55:02 10.8 C 2.47 g/m*3 10.8 C 0 km/h
Sensor: Nr:Datum:Temp:Abs-Feuchte:Windchill:Wind:
Aussen-T/F 101 21-04-2010 20:07:02 10.1 C 2.46 g/m*3 10.1 C 0 km/h
102 21-04-2010 20:19:02 9.6 C 2.66 g/m*3 9.6 C 0 km/h
103 21-04-2010 20:31:02 9.2 C 2.68 g/m*3 9.2 C 0 km/h
104 21-04-2010 20:43:02 8.8 C 2.79 g/m*3 8.8 C 0 km/h
105 21-04-2010 20:55:02 8.4 C 2.88 g/m*3 8.4 C 0 km/h
106 21-04-2010 21:07:02 8.1 C 2.91 g/m*3 8.1 C 0 km/h
107 21-04-2010 21:19:02 7.6 C 2.98 g/m*3 7.6 C 0 km/h
108 21-04-2010 21:31:02 7.2 C 2.98 g/m*3 7.2 C 0 km/h
109 21-04-2010 21:43:02 6.9 C 3.08 g/m*3 6.9 C 0 km/h
110 21-04-2010 21:55:01 6.6 C 3.1 g/m*3 6.6 C 0 km/h
111 21-04-2010 22:08:02 6.5 C 3.07 g/m*3 6.5 C 0 km/h
112 21-04-2010 22:20:02 6.5 C 3.07 g/m*3 6.5 C 0 km/h
113 21-04-2010 22:32:02 6.3 C 3.03 g/m*3 6.3 C 0 km/h
114 21-04-2010 22:44:02 6.2 C 3.16 g/m*3 6.2 C 0 km/h
115 21-04-2010 22:56:02 5.9 C 3.24 g/m*3 5.9 C 0 km/h
116 21-04-2010 23:08:02 5.6 C 3.32 g/m*3 5.6 C 0 km/h
117 21-04-2010 23:20:02 5.3 C 3.33 g/m*3 5.3 C 0 km/h
118 21-04-2010 23:32:02 5 C 3.4 g/m*3 5 C 0 km/h
119 21-04-2010 23:44:02 4.8 C 3.49 g/m*3 4.8 C 0 km/h
120 21-04-2010 23:56:02 4.5 C 3.42 g/m*3 4.5 C 0 km/h
121 22-04-2010 00:08:02 4.3 C 3.5 g/m*3 4.3 C 0 km/h
122 22-04-2010 00:20:03 4.1 C 3.46 g/m*3 4.1 C 0 km/h
123 22-04-2010 00:32:03 3.8 C 3.51 g/m*3 3.8 C 0 km/h
124 22-04-2010 00:44:03 3.6 C 3.47 g/m*3 3.6 C 0 km/h
125 22-04-2010 00:56:03 3.5 C 3.57 g/m*3 3.5 C 0 km/h
Sensor: Nr:Datum:Temp:Abs-Feuchte:Windchill:Wind:
Aussen-T/F 126 22-04-2010 01:08:03 3.4 C 3.6 g/m*3 3.4 C 0 km/h
127 22-04-2010 01:20:03 3.1 C 3.59 g/m*3 3.1 C 0 km/h
128 22-04-2010 01:32:03 2.9 C 3.66 g/m*3 2.9 C 0 km/h
129 22-04-2010 01:44:03 2.7 C 3.67 g/m*3 2.7 C 0 km/h
130 22-04-2010 01:56:03 2.5 C 3.68 g/m*3 2.5 C 0 km/h
131 22-04-2010 02:08:03 2.3 C 3.69 g/m*3 2.3 C 0 km/h
132 22-04-2010 02:20:03 2.2 C 3.72 g/m*3 2.2 C 0 km/h
133 22-04-2010 02:32:03 2 C 3.78 g/m*3 2 C 0 km/h
134 22-04-2010 02:44:03 2 C 3.78 g/m*3 2 C 0 km/h
135 22-04-2010 02:56:03 1.7 C 3.76 g/m*3 1.7 C 0 km/h
136 22-04-2010 03:08:03 1.5 C 3.71 g/m*3 1.5 C 0 km/h
137 22-04-2010 03:20:03 1.3 C 3.71 g/m*3 1.3 C 0 km/h
138 22-04-2010 03:32:03 1.3 C 3.76 g/m*3 1.3 C 0 km/h
139 22-04-2010 03:44:03 1.2 C 3.74 g/m*3 1.2 C 0 km/h
140 22-04-2010 03:56:03 1.1 C 3.76 g/m*3 1.1 C 0 km/h
141 22-04-2010 04:08:03 1 C 3.79 g/m*3 1 C 0 km/h
142 22-04-2010 04:20:03 0.9 C 3.81 g/m*3 0.9 C 0 km/h
143 22-04-2010 04:32:03 0.8 C 3.79 g/m*3 0.8 C 0 km/h
144 22-04-2010 04:44:04 0.7 C 3.81 g/m*3 0.7 C 0 km/h
145 22-04-2010 04:56:04 0.6 C 3.84 g/m*3 0.6 C 0 km/h
146 22-04-2010 05:08:04 0.5 C 3.76 g/m*3 0.5 C 0 km/h
147 22-04-2010 05:20:04 0.5 C 3.81 g/m*3 0.5 C 0 km/h
148 22-04-2010 05:32:04 0.3 C 3.76 g/m*3 0.3 C 0 km/h
149 22-04-2010 05:44:04 0.2 C 3.78 g/m*3 0.2 C 0 km/h
150 22-04-2010 05:56:04 0 C 3.73 g/m*3 0 C 0 km/h
Sensor: Nr:Datum:Temp:Abs-Feuchte:Windchill:Wind:
Aussen-T/F 151 22-04-2010 06:08:04 -0.2 C 3.68 g/m*3 -0.2 C 0 km/h
152 22-04-2010 06:20:04 -0.2 C 3.73 g/m*3 -0.2 C 0 km/h
153 22-04-2010 06:32:04 -0.2 C 3.73 g/m*3 -0.2 C 0 km/h
154 22-04-2010 06:44:04 -0.1 C 3.8 g/m*3 -0.1 C 0 km/h
155 22-04-2010 06:56:04 -0.1 C 3.85 g/m*3 -0.1 C 0 km/h
156 22-04-2010 07:08:03 -0.2 C 3.82 g/m*3 -0.2 C 0 km/h
157 22-04-2010 07:20:02 -0.2 C 3.87 g/m*3 -0.2 C 0 km/h
158 22-04-2010 07:32:02 0 C 3.92 g/m*3 0 C 0 km/h
159 22-04-2010 07:44:02 0.1 C 3.95 g/m*3 0.1 C 0 km/h
160 22-04-2010 07:56:02 0.3 C 4.01 g/m*3 0.3 C 0 km/h
161 22-04-2010 08:08:02 0.3 C 3.96 g/m*3 0.3 C 0 km/h
162 22-04-2010 08:20:02 0.5 C 4.01 g/m*3 0.5 C 0 km/h
163 22-04-2010 08:32:02 0.6 C 3.99 g/m*3 0.6 C 0 km/h
164 22-04-2010 08:44:02 0.9 C 4.02 g/m*3 0.9 C 0 km/h
165 22-04-2010 08:56:02 1.3 C 4.08 g/m*3 1.3 C 0 km/h
166 22-04-2010 09:08:02 1.7 C 4.08 g/m*3 1.7 C 0 km/h
167 22-04-2010 09:20:02 2.2 C 4 g/m*3 2.2 C 0 km/h
168 22-04-2010 09:32:03 2.8 C 4.05 g/m*3 2.8 C 0 km/h
169 22-04-2010 09:44:03 3.5 C 4.12 g/m*3 3.5 C 0 km/h
170 22-04-2010 09:56:02 4.5 C 4.21 g/m*3 4.5 C 0 km/h
171 22-04-2010 10:08:01 5.2 C 3.99 g/m*3 5.2 C 0 km/h
172 22-04-2010 10:20:02 5.7 C 3.99 g/m*3 5.7 C 0 km/h
173 22-04-2010 10:32:02 6.4 C 3.73 g/m*3 6.4 C 0 km/h
174 22-04-2010 10:44:02 6.8 C 3.44 g/m*3 6.8 C 0 km/h
175 22-04-2010 10:56:02 7.3 C 3.24 g/m*3 7.3 C 0 km/h
Sensor: Nr:Datum:Temp:Abs-Feuchte:Windchill:Wind:
Aussen-T/F 176 22-04-2010 11:08:02 8.3 C 3.2 g/m*3 8.3 C 0 km/h
177 22-04-2010 11:20:02 8.7 C 3.03 g/m*3 8.7 C 0 km/h
178 22-04-2010 11:32:03 9 C 2.91 g/m*3 9 C 0 km/h
179 22-04-2010 11:44:03 9.7 C 3.04 g/m*3 9.7 C 0 km/h
180 22-04-2010 11:56:02 9.9 C 2.89 g/m*3 9.9 C 0 km/h
181 22-04-2010 12:08:01 10 C 2.82 g/m*3 10 C 0 km/h
182 22-04-2010 12:20:02 10.4 C 2.89 g/m*3 10.4 C 0 km/h
183 22-04-2010 12:32:02 10.9 C 2.88 g/m*3 10.9 C 0 km/h
184 22-04-2010 12:44:02 11.1 C 2.92 g/m*3 11.1 C 0 km/h
185 22-04-2010 12:56:02 11.4 C 2.77 g/m*3 11.4 C 0 km/h
186 22-04-2010 13:08:01 12 C 2.66 g/m*3 12 C 0 km/h
187 22-04-2010 13:20:01 12 C 2.13 g/m*3 12 C 0 km/h
188 22-04-2010 13:32:02 13 C 2.27 g/m*3 13 C 0 km/h
189 22-04-2010 13:44:02 13.5 C 2.34 g/m*3 13.5 C 0 km/h
190 22-04-2010 13:56:02 13.3 C 2.31 g/m*3 13.3 C 0 km/h
191 22-04-2010 14:08:02 13.8 C 2.38 g/m*3 13.8 C 0 km/h
192 22-04-2010 14:20:02 14.9 C 2.55 g/m*3 14.9 C 0 km/h
193 22-04-2010 14:32:02 15.5 C 2.64 g/m*3 15.5 C 0 km/h
194 22-04-2010 14:44:02 16 C 2.72 g/m*3 16 C 0 km/h
195 22-04-2010 14:56:02 16.3 C 2.77 g/m*3 16.3 C 0 km/h
196 22-04-2010 15:08:01 16.1 C 2.74 g/m*3 16.1 C 0 km/h
197 22-04-2010 15:20:02 16 C 2.72 g/m*3 16 C 0 km/h
198 22-04-2010 15:32:02 16 C 2.72 g/m*3 16 C 0 km/h
199 22-04-2010 15:44:02 17.5 C 2.98 g/m*3 17.5 C 0 km/h
200 22-04-2010 15:56:02 16.3 C 2.77 g/m*3 16.3 C 0 km/h
Sensor: Nr:Datum:Temp:Abs-Feuchte:Windchill:Wind:
Aussen-T/F 201 22-04-2010 16:08:02 16.3 C 2.77 g/m*3 16.3 C 0 km/h
202 22-04-2010 16:20:02 17.9 C 3.05 g/m*3 17.9 C 0 km/h
203 22-04-2010 16:32:03 18.9 C 3.24 g/m*3 18.9 C 0 km/h
204 22-04-2010 16:44:03 17.5 C 2.98 g/m*3 17.5 C 0 km/h
205 22-04-2010 16:56:02 18.8 C 3.22 g/m*3 18.8 C 0 km/h
206 22-04-2010 17:08:01 19.4 C 3.34 g/m*3 19.4 C 0 km/h
207 22-04-2010 17:20:02 19.4 C 3.34 g/m*3 19.4 C 0 km/h
208 22-04-2010 17:32:02 19.8 C 3.42 g/m*3 19.8 C 0 km/h
209 22-04-2010 17:44:02 21.6 C 3.79 g/m*3 21.6 C 0 km/h
210 22-04-2010 17:56:02 21.2 C 3.71 g/m*3 21.2 C 0 km/h
211 22-04-2010 18:08:03 19.3 C 3.32 g/m*3 19.3 C 0 km/h
212 22-04-2010 18:20:02 18.5 C 3.16 g/m*3 18.5 C 0 km/h
213 22-04-2010 18:32:02 18.9 C 3.24 g/m*3 18.9 C 0 km/h
214 22-04-2010 18:44:02 18.7 C 3.2 g/m*3 18.7 C 0 km/h
215 22-04-2010 18:56:02 17.8 C 3.04 g/m*3 17.8 C 0 km/h
216 22-04-2010 19:08:02 17.2 C 2.93 g/m*3 17.2 C 0 km/h
217 22-04-2010 19:20:01 17 C 2.89 g/m*3 17 C 0 km/h
218 22-04-2010 19:32:02 16.9 C 2.88 g/m*3 16.9 C 0 km/h
219 22-04-2010 19:44:02 16.5 C 2.81 g/m*3 16.5 C 0 km/h
220 22-04-2010 19:56:02 16.3 C 2.77 g/m*3 16.3 C 0 km/h
221 22-04-2010 20:08:02 15.1 C 2.58 g/m*3 15.1 C 0 km/h
222 22-04-2010 20:20:02 13.9 C 2.4 g/m*3 13.9 C 0 km/h
223 22-04-2010 20:32:02 13.5 C 2.34 g/m*3 13.5 C 0 km/h
224 22-04-2010 20:44:03 12.6 C 2.21 g/m*3 12.6 C 0 km/h
225 22-04-2010 20:56:02 12 C 2.13 g/m*3 12 C 0 km/h
Sensor: Nr:Datum:Temp:Abs-Feuchte:Windchill:Wind:
Aussen-T/F 226 22-04-2010 21:08:03 11.7 C 2.41 g/m*3 11.7 C 0 km/h
227 22-04-2010 21:20:02 11.2 C 2.64 g/m*3 11.2 C 0 km/h
228 22-04-2010 21:32:02 10.7 C 2.65 g/m*3 10.7 C 0 km/h
229 22-04-2010 21:44:02 10.3 C 2.68 g/m*3 10.3 C 0 km/h
230 22-04-2010 21:57:02 10 C 2.82 g/m*3 10 C 0 km/h
231 22-04-2010 22:09:02 9.9 C 2.8 g/m*3 9.9 C 0 km/h
232 22-04-2010 22:21:02 9.5 C 2.73 g/m*3 9.5 C 0 km/h
233 22-04-2010 22:33:02 9.2 C 2.77 g/m*3 9.2 C 0 km/h
234 22-04-2010 22:45:02 9.1 C 2.75 g/m*3 9.1 C 0 km/h
235 22-04-2010 22:57:02 8.7 C 2.94 g/m*3 8.7 C 0 km/h
236 22-04-2010 23:09:02 8.5 C 2.99 g/m*3 8.5 C 0 km/h
237 22-04-2010 23:21:02 8.3 C 3.12 g/m*3 8.3 C 0 km/h
238 22-04-2010 23:33:02 8.2 C 3.18 g/m*3 8.2 C 0 km/h
239 22-04-2010 23:45:02 7.9 C 3.29 g/m*3 7.9 C 0 km/h
240 22-04-2010 23:57:02 7.7 C 3.32 g/m*3 7.7 C 0 km/h

Legende:
   Min
   Max


Maximal/Minimal-Werte vom 21.04.2010 - 22.04.2010

Sensor Min Max Avg
Temp
(Aussen-T/F)
-0.2 °C
22-04-2010  06:08:04
21.6 °C
22-04-2010  17:44:02
7.85 °C
Abs-Feuchte
(Aussen-T/F)
2.13 g/m*3
22-04-2010  13:20:01
5.62 g/m*3
21-04-2010  12:31:01
3.46 g/m*3
Windchill
(Aussen-T/F)
-0.2 C
22-04-2010  06:08:04
21.6 C
22-04-2010  17:44:02
7.82 C

Die Daten stammen von einer Davis Vantage Pro 2 Wetter-Station und werden unter Linux mit der Software wview2wettercgi und aufbereitet. Alle Angaben erfolgen ohne Gewähr für ihre Vollständigkeit oder Richtigkeit.
Kontakt: Rainer Krienke krienke@uni-koblenz.de . Meine Webseiten an der Uni Koblenz oder privat.
Version: $Revision: 0.78 $